Time;durP1;ratioP1;P1;durP2;ratioP2;P2;SDS_P1;SDS_P2;PMS_P1;PMS_P2;Temp;Humidity;BMP_temperature;BMP_pressure;BME280_temperature;BME280_humidity;BME280_pressure;Samples;Min_cycle;Max_cycle;Signal;HPM_P1;HPM_P2
2022/11/05 00:10:29;;;;;;;18.42;13.55;;;10.50;99.90;;;;;;5030098;28;20490;-48
2022/11/05 00:19:24;;;;;;;18.52;12.52;;;10.20;99.90;;;;;;5008093;28;20038;-49
2022/11/05 00:25:17;;;;;;;16.50;12.27;;;10.20;99.90;;;;;;5030774;28;20026;-52
2022/11/05 00:28:03;;;;;;;16.80;12.43;;;10.30;99.90;;;;;;5033279;28;20021;-55
2022/11/05 00:30:49;;;;;;;16.40;12.75;;;10.30;99.90;;;;;;5017811;28;20053;-61
2022/11/05 00:33:37;;;;;;;16.25;12.60;;;10.30;99.90;;;;;;5032355;28;20040;-58
2022/11/05 00:36:22;;;;;;;18.92;12.65;;;10.40;99.90;;;;;;5033210;28;20025;-56
2022/11/05 00:39:08;;;;;;;18.08;12.90;;;10.50;99.90;;;;;;5033581;28;20029;-54
2022/11/05 00:45:02;;;;;;;16.27;12.60;;;10.40;99.90;;;;;;5021474;28;20040;-58
2022/11/05 00:50:54;;;;;;;18.58;14.40;;;10.40;99.90;;;;;;5021626;28;20030;-59
2022/11/05 00:53:40;;;;;;;15.95;13.23;;;10.30;99.90;;;;;;5018485;28;20528;-60
2022/11/05 00:56:26;;;;;;;20.58;13.77;;;10.40;99.90;;;;;;5033124;28;20087;-57
2022/11/05 00:59:12;;;;;;;19.70;14.43;;;10.40;99.90;;;;;;5033328;28;20030;-52
2022/11/05 01:01:58;;;;;;;17.33;13.63;;;10.30;99.90;;;;;;5032801;28;20040;-57
2022/11/05 01:04:44;;;;;;;19.55;12.95;;;10.30;99.90;;;;;;5032468;28;20041;-54
2022/11/05 01:07:30;;;;;;;18.50;13.95;;;10.30;99.90;;;;;;5004839;28;20048;-56
2022/11/05 01:10:20;;;;;;;16.92;14.05;;;10.30;99.90;;;;;;5032771;28;20029;-60
2022/11/05 01:13:06;;;;;;;16.30;13.02;;;10.20;99.90;;;;;;5018459;28;20497;-54
2022/11/05 01:15:52;;;;;;;20.67;14.07;;;10.40;99.90;;;;;;5031941;28;20038;-52
2022/11/05 01:18:38;;;;;;;24.15;14.50;;;10.30;99.90;;;;;;5032937;28;20108;-49
2022/11/05 01:21:24;;;;;;;20.05;13.90;;;10.40;99.90;;;;;;5018369;28;20030;-55
2022/11/05 01:24:10;;;;;;;16.70;13.27;;;10.50;99.90;;;;;;5013241;28;20053;-51
2022/11/05 01:26:56;;;;;;;21.63;14.10;;;10.40;99.90;;;;;;5014720;28;20022;-49
2022/11/05 01:29:42;;;;;;;20.17;13.90;;;10.30;99.90;;;;;;5016859;28;20027;-68
2022/11/05 01:32:28;;;;;;;20.60;14.25;;;10.10;99.90;;;;;;5031117;28;20108;-65
2022/11/05 01:35:16;;;;;;;22.95;15.18;;;10.10;99.90;;;;;;5019749;28;20116;-53
2022/11/05 01:38:02;;;;;;;18.80;13.73;;;10.00;99.90;;;;;;5031574;28;20029;-59
2022/11/05 01:40:48;;;;;;;21.45;14.27;;;10.20;99.90;;;;;;5031364;28;20112;-56
2022/11/05 01:43:55;;;;;;;21.20;14.55;;;10.10;99.90;;;;;;5031881;28;20041;-48
2022/11/05 01:46:44;;;;;;;19.35;14.20;;;10.30;99.90;;;;;;5030319;28;20053;-52
2022/11/05 01:49:33;;;;;;;19.27;13.88;;;10.40;99.90;;;;;;5032286;28;20059;-58
2022/11/05 01:52:20;;;;;;;18.90;13.73;;;10.40;99.90;;;;;;5032144;28;20045;-55
2022/11/05 01:55:08;;;;;;;22.50;14.18;;;10.40;99.90;;;;;;5032452;28;20502;-56
2022/11/05 01:57:56;;;;;;;17.95;11.50;;;10.30;99.90;;;;;;5011460;28;20068;-50
2022/11/05 02:00:43;;;;;;;20.90;12.70;;;10.40;99.90;;;;;;5018959;28;20040;-52
2022/11/05 02:03:29;;;;;;;17.58;10.80;;;10.60;99.90;;;;;;5031423;28;20064;-57
2022/11/05 02:06:16;;;;;;;16.40;11.93;;;10.60;99.90;;;;;;5031867;28;20038;-53
2022/11/05 02:09:05;;;;;;;16.52;12.05;;;10.70;99.90;;;;;;5031282;28;20057;-55
2022/11/05 02:11:51;;;;;;;15.52;10.38;;;10.60;99.90;;;;;;5017692;28;20051;-51
2022/11/05 02:14:37;;;;;;;16.00;11.10;;;10.60;99.90;;;;;;5031824;28;20120;-52
2022/11/05 02:17:46;;;;;;;17.58;10.63;;;10.60;99.90;;;;;;5012158;28;20026;-51
2022/11/05 02:20:45;;;;;;;13.07;9.15;;;10.50;99.90;;;;;;5019205;28;20029;-56
2022/11/05 02:23:49;;;;;;;14.20;9.38;;;10.40;99.90;;;;;;5030516;28;20029;-51
2022/11/05 02:27:00;;;;;;;15.15;8.15;;;10.40;99.90;;;;;;5030471;28;20389;-64
2022/11/05 02:30:10;;;;;;;12.85;8.68;;;10.40;99.90;;;;;;5030827;28;20079;-59
2022/11/05 02:33:18;;;;;;;13.13;8.43;;;10.30;99.90;;;;;;5016679;28;20022;-59
2022/11/05 02:36:19;;;;;;;14.10;8.13;;;10.40;99.90;;;;;;5030871;28;20032;-57
2022/11/05 02:39:20;;;;;;;13.05;8.55;;;10.50;99.90;;;;;;5030221;28;20029;-55
2022/11/05 02:42:06;;;;;;;15.05;8.32;;;10.40;99.90;;;;;;5029862;28;20021;-58
2022/11/05 02:45:11;;;;;;;13.75;7.95;;;10.40;99.90;;;;;;5015303;28;20018;-50
2022/11/05 02:48:09;;;;;;;14.38;8.25;;;10.30;99.90;;;;;;5029409;28;20049;-57
2022/11/05 02:51:21;;;;;;;15.10;8.70;;;10.30;99.90;;;;;;5016228;28;20033;-52
2022/11/05 02:54:23;;;;;;;12.43;8.15;;;10.20;99.90;;;;;;5029894;28;20029;-55
2022/11/05 02:57:09;;;;;;;17.17;8.23;;;10.20;99.90;;;;;;5030102;28;20033;-57
2022/11/05 03:00:45;;;;;;;15.57;8.35;;;10.20;99.90;;;;;;5029904;28;20037;-57
2022/11/05 03:03:35;;;;;;;14.50;9.05;;;10.20;99.90;;;;;;5029184;28;20026;-47
2022/11/05 03:06:38;;;;;;;18.77;8.98;;;10.10;99.90;;;;;;5028763;28;20033;-52
2022/11/05 03:09:42;;;;;;;15.70;9.52;;;10.10;99.90;;;;;;5029026;28;20022;-58
2022/11/05 03:12:38;;;;;;;13.07;8.70;;;10.10;99.90;;;;;;5029370;28;20040;-50
2022/11/05 03:15:40;;;;;;;18.23;9.98;;;10.10;99.90;;;;;;5029535;28;20063;-50
2022/11/05 03:18:41;;;;;;;15.18;8.80;;;10.10;99.90;;;;;;5028158;28;20402;-57
2022/11/05 03:21:50;;;;;;;19.73;9.32;;;10.40;99.90;;;;;;5029027;28;20398;-49
2022/11/05 03:24:41;;;;;;;13.32;9.07;;;10.10;99.90;;;;;;5029015;28;20034;-53
2022/11/05 03:27:35;;;;;;;12.45;8.13;;;10.00;99.90;;;;;;5028387;28;20498;-50
2022/11/05 03:30:23;;;;;;;13.95;8.77;;;10.20;99.90;;;;;;5029311;28;20102;-50
2022/11/05 03:33:18;;;;;;;17.55;8.70;;;10.20;99.90;;;;;;5029261;28;20056;-48
2022/11/05 03:36:15;;;;;;;20.85;8.88;;;10.10;99.90;;;;;;5010397;28;20025;-51
2022/11/05 03:39:04;;;;;;;15.10;8.40;;;10.20;99.90;;;;;;5023345;28;20429;-58
2022/11/05 03:41:52;;;;;;;13.25;8.25;;;10.20;99.90;;;;;;5029218;28;20060;-53
2022/11/05 03:44:43;;;;;;;13.20;8.68;;;10.30;99.90;;;;;;5015828;28;20490;-48
2022/11/05 03:47:35;;;;;;;17.75;9.57;;;10.30;99.90;;;;;;5028077;28;20544;-57
2022/11/05 03:50:27;;;;;;;16.70;9.45;;;10.20;99.90;;;;;;5009846;28;20029;-48
2022/11/05 03:53:19;;;;;;;15.35;8.65;;;10.20;99.90;;;;;;5014560;28;20029;-57
2022/11/05 03:56:17;;;;;;;15.82;9.50;;;10.20;99.90;;;;;;5029144;28;20040;-56
2022/11/05 03:59:05;;;;;;;15.25;8.65;;;10.10;99.90;;;;;;5028648;28;20397;-50
2022/11/05 04:01:52;;;;;;;16.00;9.15;;;10.00;99.90;;;;;;5032143;28;20083;-50
2022/11/05 04:04:38;;;;;;;18.05;9.45;;;10.00;99.90;;;;;;4878804;28;4491733;-58
2022/11/05 04:13:50;;;;;;;15.02;9.10;;;9.70;99.90;;;;;;4977860;28;20070;-56
2022/11/05 04:25:51;;;;;;;16.63;10.10;;;9.90;99.90;;;;;;5030473;28;20026;-55
2022/11/05 04:31:41;;;;;;;14.93;10.20;;;9.80;99.90;;;;;;5035737;28;20068;-49
2022/11/05 04:34:27;;;;;;;15.68;11.15;;;9.70;99.90;;;;;;5034284;28;20028;-48
2022/11/05 04:37:13;;;;;;;19.63;10.82;;;9.40;99.90;;;;;;5006126;28;20124;-49
2022/11/05 04:39:59;;;;;;;16.13;10.30;;;9.30;99.90;;;;;;5013730;28;20033;-52
2022/11/05 04:42:45;;;;;;;19.33;11.45;;;9.30;99.90;;;;;;5028988;28;20121;-55
2022/11/05 04:45:36;;;;;;;15.63;10.73;;;9.20;99.90;;;;;;5033527;28;20026;-55
2022/11/05 04:48:21;;;;;;;16.23;10.98;;;9.30;99.90;;;;;;4986912;28;20033;-51
2022/11/05 04:51:07;;;;;;;15.48;10.75;;;9.30;99.90;;;;;;5014719;28;20026;-54
2022/11/05 04:53:53;;;;;;;16.13;11.15;;;9.40;99.90;;;;;;5019031;28;20422;-55
2022/11/05 04:56:39;;;;;;;24.48;12.32;;;9.40;99.90;;;;;;5033356;28;20051;-58
2022/11/05 04:59:25;;;;;;;18.65;11.65;;;9.30;99.90;;;;;;5032667;28;20021;-53
2022/11/05 05:02:11;;;;;;;16.88;12.27;;;9.20;99.90;;;;;;5031979;28;20449;-58
2022/11/05 05:04:57;;;;;;;22.30;11.68;;;9.10;99.90;;;;;;5032691;28;20580;-56
2022/11/05 05:07:43;;;;;;;18.65;12.80;;;8.90;99.90;;;;;;5013613;28;20104;-50
2022/11/05 05:10:29;;;;;;;16.40;12.90;;;8.70;99.90;;;;;;5016947;28;20018;-52
2022/11/05 05:13:15;;;;;;;21.55;13.27;;;8.50;99.90;;;;;;5033099;28;20033;-48
2022/11/05 05:16:27;;;;;;;24.50;13.85;;;8.60;99.90;;;;;;5032801;28;20580;-50
2022/11/05 05:19:14;;;;;;;20.70;13.65;;;8.60;99.90;;;;;;5031569;28;20033;-49
2022/11/05 05:22:00;;;;;;;23.65;13.30;;;8.60;99.90;;;;;;5017362;28;20498;-51
2022/11/05 05:24:46;;;;;;;26.17;13.98;;;8.60;99.90;;;;;;5032703;28;20037;-57
2022/11/05 05:27:32;;;;;;;18.60;12.82;;;8.60;99.90;;;;;;5032817;28;20029;-56
2022/11/05 05:30:17;;;;;;;20.88;12.63;;;8.90;99.90;;;;;;5031855;28;20541;-62
2022/11/05 05:33:03;;;;;;;18.77;13.13;;;8.70;99.90;;;;;;5033062;28;20120;-52
2022/11/05 05:35:49;;;;;;;18.10;14.02;;;8.60;99.90;;;;;;5032125;28;20421;-52
2022/11/05 05:38:35;;;;;;;19.88;13.02;;;8.60;99.90;;;;;;5031671;28;20172;-50
2022/11/05 05:41:21;;;;;;;22.10;13.82;;;8.60;99.90;;;;;;5031424;28;20095;-51
2022/11/05 05:44:07;;;;;;;27.33;14.20;;;8.40;99.90;;;;;;5032221;28;20490;-50
2022/11/05 05:46:54;;;;;;;23.55;13.95;;;8.50;99.90;;;;;;5011383;28;20225;-54
2022/11/05 05:49:40;;;;;;;19.63;14.38;;;8.50;99.90;;;;;;5014624;28;20727;-48
2022/11/05 05:52:26;;;;;;;22.50;13.60;;;8.50;99.90;;;;;;5025200;28;20033;-59
2022/11/05 05:55:12;;;;;;;26.02;14.70;;;8.50;99.90;;;;;;5045048;28;20122;-55
2022/11/05 05:57:58;;;;;;;21.60;14.27;;;8.40;99.90;;;;;;5031410;28;20033;-55
2022/11/05 06:00:43;;;;;;;22.20;15.60;;;8.20;99.90;;;;;;5031177;28;20029;-58
2022/11/05 06:03:30;;;;;;;22.30;14.85;;;8.20;99.90;;;;;;5031729;28;20029;-52
2022/11/05 06:06:20;;;;;;;24.65;15.43;;;8.20;99.90;;;;;;5032219;28;20041;-51
2022/11/05 06:09:06;;;;;;;27.30;14.82;;;8.30;99.90;;;;;;5031770;28;20040;-60
2022/11/05 06:11:52;;;;;;;22.13;14.10;;;8.40;99.90;;;;;;5031210;28;20030;-54
2022/11/05 06:14:38;;;;;;;24.17;14.63;;;8.40;99.90;;;;;;5030805;28;20033;-54
2022/11/05 06:17:24;;;;;;;19.70;13.65;;;8.50;99.90;;;;;;5017242;28;20034;-56
2022/11/05 06:20:11;;;;;;;22.60;14.25;;;8.50;99.90;;;;;;4997696;28;20034;-54
2022/11/05 06:22:57;;;;;;;20.25;15.38;;;8.30;99.90;;;;;;5010733;28;20038;-56
2022/11/05 06:25:43;;;;;;;28.75;17.23;;;8.40;99.90;;;;;;5029794;28;20036;-58
2022/11/05 06:28:30;;;;;;;21.15;14.45;;;8.40;99.90;;;;;;5003843;28;20029;-57
2022/11/05 06:31:16;;;;;;;20.08;14.80;;;8.50;99.90;;;;;;5011022;28;20057;-57
2022/11/05 06:34:02;;;;;;;22.77;14.43;;;8.40;99.90;;;;;;4997411;28;20026;-56
2022/11/05 06:36:48;;;;;;;21.83;15.75;;;8.40;99.90;;;;;;5010221;28;20030;-57
2022/11/05 06:39:33;;;;;;;23.95;16.10;;;8.30;99.90;;;;;;5010437;28;20029;-52
2022/11/05 06:42:19;;;;;;;22.25;15.57;;;8.20;99.90;;;;;;5011242;28;20072;-52
2022/11/05 06:45:06;;;;;;;25.83;15.77;;;8.30;99.90;;;;;;5011564;28;20141;-54
2022/11/05 06:47:56;;;;;;;27.98;16.50;;;8.20;99.90;;;;;;5011129;28;20034;-54
2022/11/05 06:50:44;;;;;;;24.13;15.07;;;8.20;99.90;;;;;;5030800;28;20049;-54
2022/11/05 06:53:30;;;;;;;22.58;15.65;;;8.00;99.90;;;;;;5030929;28;20405;-53
2022/11/05 06:56:16;;;;;;;23.58;16.15;;;8.00;99.90;;;;;;5003887;28;20064;-58
2022/11/05 06:59:02;;;;;;;23.67;16.50;;;8.00;99.90;;;;;;5015835;28;20079;-47
2022/11/05 07:01:47;;;;;;;21.23;15.98;;;8.10;99.90;;;;;;5002880;28;20041;-51
2022/11/05 07:04:33;;;;;;;24.25;16.17;;;8.10;99.90;;;;;;5030299;28;20509;-51
2022/11/05 07:07:19;;;;;;;19.92;14.70;;;8.30;99.90;;;;;;5029840;28;20486;-53
2022/11/05 07:10:08;;;;;;;21.38;15.77;;;8.40;99.90;;;;;;5030918;28;20478;-64
2022/11/05 07:12:53;;;;;;;23.08;14.85;;;8.50;99.90;;;;;;5016589;28;20044;-51
2022/11/05 07:15:39;;;;;;;19.88;13.93;;;8.50;99.90;;;;;;5031414;28;20036;-51
2022/11/05 07:18:25;;;;;;;22.40;15.27;;;8.50;99.90;;;;;;5023051;28;20036;-54
2022/11/05 07:21:11;;;;;;;21.27;15.30;;;8.50;99.90;;;;;;5015722;28;20486;-53
2022/11/05 07:23:57;;;;;;;20.13;15.02;;;8.50;99.90;;;;;;5029915;28;20058;-56
2022/11/05 07:26:43;;;;;;;23.10;14.93;;;8.60;99.90;;;;;;5029561;28;20021;-53
2022/11/05 07:29:29;;;;;;;21.65;14.90;;;8.60;99.90;;;;;;5029480;28;20033;-54
2022/11/05 07:32:15;;;;;;;25.95;15.60;;;8.50;99.90;;;;;;5029385;28;20025;-56
2022/11/05 07:35:01;;;;;;;23.25;14.38;;;8.50;99.90;;;;;;5030395;28;20041;-58
2022/11/05 07:37:49;;;;;;;25.13;15.35;;;8.60;99.90;;;;;;5011156;28;20113;-57
2022/11/05 07:40:35;;;;;;;28.98;14.25;;;8.70;99.90;;;;;;5016143;28;20429;-51
2022/11/05 07:43:21;;;;;;;21.10;13.85;;;8.70;99.90;;;;;;5030242;28;20045;-52
2022/11/05 07:46:07;;;;;;;22.58;13.60;;;8.70;99.90;;;;;;5015154;28;20034;-54
2022/11/05 07:48:53;;;;;;;23.40;13.88;;;8.80;99.90;;;;;;5029248;28;20033;-50
2022/11/05 07:51:39;;;;;;;20.90;13.35;;;8.80;99.90;;;;;;5002431;28;20061;-53
2022/11/05 07:54:25;;;;;;;19.33;14.10;;;8.90;99.90;;;;;;5030375;28;20042;-55
2022/11/05 07:57:11;;;;;;;20.90;14.35;;;9.00;99.90;;;;;;5029159;28;20030;-55
2022/11/05 07:59:57;;;;;;;22.70;15.23;;;8.90;99.90;;;;;;5012904;28;20037;-50
2022/11/05 08:02:43;;;;;;;23.02;16.48;;;8.80;99.90;;;;;;5010435;28;20034;-55
2022/11/05 08:05:30;;;;;;;21.02;13.77;;;9.00;99.90;;;;;;5014870;28;20037;-51
2022/11/05 08:08:18;;;;;;;22.90;14.63;;;9.10;99.90;;;;;;5030734;28;20548;-51
2022/11/05 08:11:06;;;;;;;20.33;13.30;;;9.10;99.90;;;;;;5029875;28;20029;-59
2022/11/05 08:13:52;;;;;;;18.70;11.93;;;9.30;99.90;;;;;;5029662;28;20130;-53
2022/11/05 08:16:38;;;;;;;18.13;12.57;;;9.40;99.90;;;;;;5028699;28;20036;-53
2022/11/05 08:19:24;;;;;;;20.80;12.98;;;9.30;99.90;;;;;;5015313;28;20431;-52
2022/11/05 08:22:10;;;;;;;19.63;14.13;;;9.30;99.90;;;;;;5028845;28;20023;-51
2022/11/05 08:24:56;;;;;;;19.17;12.40;;;9.30;99.90;;;;;;5028752;28;20025;-49
2022/11/05 08:27:42;;;;;;;19.33;12.45;;;9.40;99.90;;;;;;5029048;28;20026;-53
2022/11/05 08:30:29;;;;;;;22.73;11.77;;;9.50;99.90;;;;;;5015273;28;20544;-51
2022/11/05 08:33:15;;;;;;;19.77;11.35;;;9.60;99.90;;;;;;5013606;28;20034;-60
2022/11/05 08:36:27;;;;;;;22.27;11.48;;;9.80;99.90;;;;;;5024772;28;20113;-57
2022/11/05 08:39:13;;;;;;;16.88;10.82;;;9.80;99.90;;;;;;5008065;28;20053;-57
2022/11/05 08:41:59;;;;;;;15.90;10.30;;;9.80;99.90;;;;;;5029381;28;20044;-52
2022/11/05 08:44:45;;;;;;;17.05;9.57;;;9.90;99.90;;;;;;5023407;28;20052;-53
2022/11/05 08:47:30;;;;;;;16.02;8.80;;;10.00;99.90;;;;;;5040561;28;20061;-55
2022/11/05 08:50:16;;;;;;;16.90;9.15;;;10.00;99.90;;;;;;5018889;28;20021;-58
2022/11/05 08:53:04;;;;;;;17.90;8.93;;;10.10;99.90;;;;;;5033726;28;20053;-50
2022/11/05 08:55:50;;;;;;;14.63;8.75;;;10.20;99.90;;;;;;5033274;28;20038;-60
2022/11/05 08:58:36;;;;;;;14.27;9.05;;;10.20;99.90;;;;;;5019126;28;20036;-59
2022/11/05 09:01:22;;;;;;;14.52;8.35;;;10.20;99.90;;;;;;5032833;28;20060;-59
2022/11/05 09:04:08;;;;;;;17.20;7.88;;;10.40;99.90;;;;;;5004448;28;20049;-58
2022/11/05 09:06:54;;;;;;;17.83;8.25;;;10.50;99.90;;;;;;5032114;28;20466;-56
2022/11/05 09:09:40;;;;;;;16.02;8.10;;;10.50;99.90;;;;;;5018077;28;20389;-56
2022/11/05 09:12:26;;;;;;;14.50;7.40;;;10.50;99.90;;;;;;5037282;28;20115;-53
2022/11/05 09:15:12;;;;;;;16.15;7.03;;;10.60;99.90;;;;;;5032487;28;20033;-60
2022/11/05 09:17:58;;;;;;;13.20;7.25;;;10.60;99.90;;;;;;5020921;28;20025;-60
2022/11/05 09:20:45;;;;;;;14.55;7.07;;;10.70;99.90;;;;;;5042858;28;20025;-59
2022/11/05 09:23:31;;;;;;;14.38;6.38;;;11.00;99.90;;;;;;5047176;28;20057;-57
2022/11/05 09:26:17;;;;;;;12.48;6.45;;;11.10;99.90;;;;;;5020273;28;20033;-59
2022/11/05 09:29:03;;;;;;;14.32;6.13;;;11.30;99.90;;;;;;5031532;28;20033;-57
2022/11/05 09:31:52;;;;;;;13.95;6.90;;;11.40;99.90;;;;;;5031517;28;20064;-57
2022/11/05 09:34:38;;;;;;;12.65;5.95;;;11.60;99.90;;;;;;5032106;28;20109;-57
2022/11/05 09:37:23;;;;;;;15.55;5.78;;;11.70;99.90;;;;;;5018058;28;20026;-59
2022/11/05 09:40:16;;;;;;;13.93;4.80;;;11.80;99.90;;;;;;4999165;28;20022;-54
2022/11/05 09:43:04;;;;;;;16.65;5.00;;;12.00;99.90;;;;;;5024774;28;20040;-55
2022/11/05 09:45:56;;;;;;;16.88;6.70;;;12.10;99.90;;;;;;5004689;28;20029;-52
2022/11/05 09:48:47;;;;;;;19.90;5.88;;;12.10;99.90;;;;;;5032071;28;20029;-58
2022/11/05 09:51:35;;;;;;;13.57;5.57;;;12.10;99.90;;;;;;5032462;28;20096;-60
2022/11/05 09:54:27;;;;;;;22.65;6.65;;;11.80;99.90;;;;;;5027753;28;20489;-54
2022/11/05 09:57:17;;;;;;;11.63;5.70;;;11.70;99.90;;;;;;5029517;28;20547;-50
2022/11/05 10:00:06;;;;;;;12.10;5.82;;;11.50;99.90;;;;;;5014045;28;20528;-55
2022/11/05 10:02:59;;;;;;;15.23;5.78;;;11.50;99.90;;;;;;5029279;28;20030;-60
2022/11/05 10:05:47;;;;;;;20.60;5.85;;;11.70;99.90;;;;;;5031805;28;20551;-56
2022/11/05 10:08:43;;;;;;;13.02;5.20;;;11.70;99.90;;;;;;5029754;28;20037;-57
2022/11/05 10:11:56;;;;;;;14.98;4.97;;;11.90;99.90;;;;;;5031456;28;20524;-52
2022/11/05 10:14:48;;;;;;;17.77;5.25;;;12.00;99.90;;;;;;5028304;28;20498;-54
2022/11/05 10:17:37;;;;;;;12.73;4.20;;;11.90;99.90;;;;;;5027443;28;20026;-50
2022/11/05 10:20:35;;;;;;;13.73;4.18;;;11.90;99.90;;;;;;5009056;28;20048;-56
2022/11/05 10:23:22;;;;;;;15.40;5.10;;;12.00;99.90;;;;;;5011428;28;20030;-54
2022/11/05 10:26:13;;;;;;;18.55;4.53;;;12.00;99.90;;;;;;5027713;28;20096;-61
2022/11/05 10:28:59;;;;;;;12.15;3.97;;;12.00;99.90;;;;;;5030654;28;20033;-56
2022/11/05 10:31:45;;;;;;;13.68;4.18;;;12.00;99.90;;;;;;5031231;28;20037;-56
2022/11/05 10:34:34;;;;;;;6.95;4.40;;;12.10;99.90;;;;;;5030641;28;20486;-55
2022/11/05 10:37:23;;;;;;;12.85;4.15;;;12.30;99.90;;;;;;5030840;28;20589;-54
2022/11/05 10:40:33;;;;;;;14.85;5.00;;;12.20;99.90;;;;;;5016205;28;20458;-54
2022/11/05 10:43:50;;;;;;;14.48;5.13;;;12.20;99.90;;;;;;5029405;28;20524;-52
2022/11/05 10:46:52;;;;;;;16.42;5.55;;;12.20;99.90;;;;;;5017010;28;20021;-56
2022/11/05 10:50:01;;;;;;;15.63;4.15;;;12.40;99.90;;;;;;5030251;28;20021;-51
2022/11/05 10:52:50;;;;;;;18.52;4.28;;;12.60;99.90;;;;;;5030157;28;20026;-53
2022/11/05 10:55:41;;;;;;;22.33;4.97;;;12.70;99.90;;;;;;5015292;28;20061;-54
2022/11/05 10:58:31;;;;;;;11.80;4.30;;;12.50;99.90;;;;;;5030653;28;20037;-57
2022/11/05 11:01:18;;;;;;;10.57;4.45;;;12.40;99.90;;;;;;5030234;28;20084;-47
2022/11/05 11:04:21;;;;;;;10.52;4.90;;;12.50;99.90;;;;;;5016371;28;20030;-56
2022/11/05 11:07:21;;;;;;;12.38;4.93;;;12.70;99.90;;;;;;5028707;28;20513;-53
2022/11/05 11:10:20;;;;;;;18.15;5.65;;;12.60;99.90;;;;;;4997085;28;20018;-53
2022/11/05 11:13:43;;;;;;;10.40;4.93;;;12.40;99.90;;;;;;5019441;28;20026;-52
2022/11/05 11:16:35;;;;;;;18.70;5.00;;;12.60;99.90;;;;;;4970491;28;20033;-58
2022/11/05 11:19:27;;;;;;;14.57;5.43;;;12.90;99.90;;;;;;5029945;28;20064;-56
2022/11/05 11:22:18;;;;;;;12.95;5.22;;;12.60;99.90;;;;;;5029361;28;20163;-55
2022/11/05 11:25:25;;;;;;;11.38;4.30;;;12.70;99.90;;;;;;4995767;28;20030;-52
2022/11/05 11:28:42;;;;;;;28.35;5.82;;;12.90;99.90;;;;;;5016492;28;20032;-50
2022/11/05 11:31:31;;;;;;;12.35;4.93;;;12.90;99.90;;;;;;5029384;28;20490;-57
2022/11/05 11:34:29;;;;;;;9.43;3.47;;;12.90;99.90;;;;;;5029577;28;20059;-50
2022/11/05 11:37:18;;;;;;;11.27;3.90;;;12.80;99.90;;;;;;5029343;28;20405;-50
2022/11/05 11:40:35;;;;;;;8.13;4.03;;;12.90;99.80;;;;;;5014974;28;20691;-56
2022/11/05 11:43:28;;;;;;;16.00;4.78;;;12.90;99.90;;;;;;5021463;28;20033;-54
2022/11/05 11:46:17;;;;;;;13.65;4.38;;;12.80;99.50;;;;;;5030098;28;20030;-58
2022/11/05 11:49:05;;;;;;;9.27;3.95;;;12.80;99.40;;;;;;5029728;28;20030;-52
2022/11/05 11:51:58;;;;;;;8.35;3.60;;;12.80;99.60;;;;;;5016093;28;20038;-53
2022/11/05 11:54:44;;;;;;;8.40;3.75;;;12.80;99.10;;;;;;5026996;28;20421;-54
2022/11/05 11:57:30;;;;;;;8.05;3.60;;;12.80;99.20;;;;;;5013757;28;20038;-56
2022/11/05 12:00:18;;;;;;;12.90;3.90;;;12.70;99.10;;;;;;5029612;28;20705;-54
2022/11/05 12:03:33;;;;;;;10.45;3.53;;;12.80;98.70;;;;;;5018317;28;20026;-49
2022/11/05 12:06:33;;;;;;;8.67;3.80;;;12.70;98.80;;;;;;5009986;28;20033;-52
2022/11/05 12:09:53;;;;;;;10.30;3.90;;;12.80;98.80;;;;;;5019791;28;20029;-55
2022/11/05 12:12:49;;;;;;;9.55;3.40;;;13.10;97.30;;;;;;5033061;28;20405;-54
2022/11/05 12:15:52;;;;;;;7.10;2.92;;;13.20;96.80;;;;;;5034053;28;20017;-50
2022/11/05 12:19:01;;;;;;;6.38;2.90;;;13.20;96.80;;;;;;5031112;28;20123;-56
2022/11/05 12:22:12;;;;;;;10.18;4.10;;;13.00;96.90;;;;;;5033758;28;20123;-52
2022/11/05 12:25:44;;;;;;;11.55;3.75;;;13.10;96.50;;;;;;5033181;28;20033;-48
2022/11/05 12:28:45;;;;;;;8.82;4.75;;;13.00;96.80;;;;;;5013640;28;20030;-49
2022/11/05 12:32:13;;;;;;;9.07;4.07;;;12.80;97.20;;;;;;5016071;28;20477;-50
2022/11/05 12:35:08;;;;;;;10.00;3.85;;;12.80;97.80;;;;;;5033148;28;20065;-52
2022/11/05 12:38:23;;;;;;;9.38;3.92;;;12.90;97.90;;;;;;5013846;28;20114;-53
2022/11/05 12:41:38;;;;;;;10.52;4.43;;;13.20;97.80;;;;;;5020190;28;20367;-53
2022/11/05 12:44:53;;;;;;;8.07;4.15;;;13.40;97.50;;;;;;5033190;28;20139;-52
2022/11/05 12:48:07;;;;;;;8.70;4.07;;;13.40;97.60;;;;;;5032706;28;20040;-57
2022/11/05 12:51:22;;;;;;;9.88;4.13;;;13.40;97.60;;;;;;5031981;28;20021;-51
2022/11/05 12:54:14;;;;;;;7.15;3.45;;;13.40;97.10;;;;;;5033404;28;20056;-57
2022/11/05 12:57:02;;;;;;;13.43;4.22;;;13.40;97.10;;;;;;5026774;28;20052;-52
2022/11/05 13:00:05;;;;;;;9.75;4.25;;;13.40;97.30;;;;;;5032420;28;20398;-54
2022/11/05 13:02:57;;;;;;;8.80;3.92;;;13.30;96.80;;;;;;5032027;28;20029;-57
2022/11/05 13:06:07;;;;;;;8.85;3.60;;;13.20;97.10;;;;;;5032076;28;20036;-54
2022/11/05 13:09:06;;;;;;;12.98;4.03;;;13.40;96.80;;;;;;5018512;28;20022;-50
2022/11/05 13:11:57;;;;;;;5.57;3.13;;;13.50;96.60;;;;;;5031668;28;20029;-58
2022/11/05 13:14:49;;;;;;;10.13;3.90;;;13.50;95.70;;;;;;5032723;28;20398;-56
2022/11/05 13:17:53;;;;;;;8.48;3.47;;;13.40;96.30;;;;;;5032247;28;20049;-59
2022/11/05 13:20:43;;;;;;;6.97;3.70;;;13.40;96.70;;;;;;5031889;28;20029;-52
2022/11/05 13:24:11;;;;;;;8.38;3.55;;;13.50;96.20;;;;;;5017311;28;20502;-60
2022/11/05 13:27:10;;;;;;;10.50;3.85;;;13.40;96.10;;;;;;5031136;28;20033;-53
2022/11/05 13:30:02;;;;;;;9.07;3.75;;;13.40;96.40;;;;;;5030625;28;20075;-53
2022/11/05 13:33:03;;;;;;;9.75;4.63;;;13.60;96.70;;;;;;5032007;28;20401;-53
2022/11/05 13:38:57;;;;;;;8.07;3.40;;;13.60;96.40;;;;;;5031782;28;20171;-51
2022/11/05 13:39:20;;;;;;;10.73;4.57;;;13.90;96.00;;;;;;5031373;28;20611;-56
2022/11/05 13:42:28;;;;;;;9.05;4.40;;;14.00;95.70;;;;;;5031828;28;20072;-58
2022/11/05 13:45:30;;;;;;;10.43;4.40;;;13.80;95.90;;;;;;5012713;28;20038;-60
2022/11/05 13:48:27;;;;;;;11.77;4.38;;;13.90;95.50;;;;;;5027686;28;20036;-54
2022/11/05 13:51:29;;;;;;;6.20;3.53;;;13.70;95.60;;;;;;5030541;28;20026;-60
2022/11/05 13:54:31;;;;;;;12.25;4.63;;;13.80;95.50;;;;;;5030283;28;20544;-57
2022/11/05 13:57:45;;;;;;;6.78;4.05;;;14.10;95.30;;;;;;5026547;28;20024;-59
2022/11/05 14:01:03;;;;;;;8.88;3.95;;;14.20;95.20;;;;;;5030828;28;20021;-61
2022/11/05 14:03:52;;;;;;;7.78;3.60;;;14.40;94.30;;;;;;5030280;28;20034;-58
2022/11/05 14:06:38;;;;;;;9.07;4.38;;;14.20;94.50;;;;;;5030939;28;20029;-59
2022/11/05 14:09:26;;;;;;;10.88;3.95;;;14.60;94.40;;;;;;5031273;28;20076;-56
2022/11/05 14:12:28;;;;;;;6.80;3.72;;;15.00;93.60;;;;;;5031566;28;20029;-58
2022/11/05 14:15:14;;;;;;;8.38;3.03;;;15.50;92.70;;;;;;5031641;28;20022;-58
2022/11/05 14:18:17;;;;;;;6.90;3.25;;;15.40;92.10;;;;;;5031025;28;20164;-59
2022/11/05 14:21:05;;;;;;;6.13;3.22;;;15.50;92.20;;;;;;5030865;28;20037;-59
2022/11/05 14:23:53;;;;;;;9.82;3.70;;;15.60;92.10;;;;;;5031030;28;20418;-56
2022/11/05 14:26:39;;;;;;;5.50;3.08;;;15.50;92.20;;;;;;5030637;28;20029;-63
2022/11/05 14:29:39;;;;;;;4.38;2.65;;;15.30;91.80;;;;;;5031450;28;20493;-61
2022/11/05 14:32:41;;;;;;;5.28;2.92;;;14.90;91.80;;;;;;5014060;28;20034;-60
2022/11/05 14:35:37;;;;;;;7.10;3.92;;;13.90;93.60;;;;;;5018082;28;20034;-60
2022/11/05 14:38:26;;;;;;;10.10;3.50;;;13.40;94.40;;;;;;5032566;28;20068;-60
2022/11/05 14:41:12;;;;;;;7.20;3.55;;;13.00;95.20;;;;;;5031946;28;20033;-60
2022/11/05 14:44:05;;;;;;;9.35;3.50;;;12.90;95.50;;;;;;5032190;28;20026;-59
2022/11/05 14:46:55;;;;;;;14.23;4.22;;;12.60;96.10;;;;;;5033696;28;20036;-63
2022/11/05 14:49:56;;;;;;;7.25;3.60;;;12.50;96.10;;;;;;5021914;28;20083;-63
2022/11/05 14:52:51;;;;;;;6.32;3.38;;;12.40;96.00;;;;;;5033966;28;20025;-60
2022/11/05 14:55:41;;;;;;;5.07;3.03;;;12.00;96.60;;;;;;5023279;28;20109;-60
2022/11/05 14:58:36;;;;;;;4.63;3.25;;;12.00;96.80;;;;;;5043473;28;20022;-64
2022/11/05 15:01:31;;;;;;;8.47;3.27;;;12.00;96.70;;;;;;5041398;28;20057;-59
2022/11/05 15:04:41;;;;;;;5.65;3.38;;;11.90;97.10;;;;;;5037860;28;20037;-60
2022/11/05 15:07:36;;;;;;;10.85;3.40;;;12.00;97.10;;;;;;5030433;28;20029;-59
2022/11/05 15:10:30;;;;;;;9.90;3.67;;;11.90;97.20;;;;;;5030007;28;20528;-59
2022/11/05 15:13:33;;;;;;;18.60;3.65;;;12.00;97.00;;;;;;5029711;28;20029;-63
2022/11/05 15:16:34;;;;;;;5.82;3.35;;;12.00;97.10;;;;;;5016089;28;20040;-59
2022/11/05 15:19:32;;;;;;;7.63;3.67;;;11.80;97.50;;;;;;5030030;28;20025;-59
2022/11/05 15:22:31;;;;;;;7.95;3.47;;;11.80;98.10;;;;;;5030096;28;20059;-64
2022/11/05 15:25:23;;;;;;;8.68;3.50;;;11.70;97.90;;;;;;5030492;28;20091;-61
2022/11/05 15:28:43;;;;;;;6.60;4.20;;;11.80;97.90;;;;;;5029088;28;20057;-60
2022/11/05 15:31:39;;;;;;;5.45;3.72;;;11.80;97.70;;;;;;4954240;28;20089;-55